METAR Data
IDs: Format: Raw Decoded Include TAF

Data at: 1727 UTC 21 Sep 2018

KGLS 211652Z 15012KT 10SM SCT018 BKN023 BKN028 32/27 A2998 RMK AO2 SLP152 T03170272
KGLS 211552Z 15011KT 10SM SCT017 BKN024 31/27 A2999 RMK AO2 SLP154 T03110272
KGLS 211512Z 13011KT 10SM BKN019 BKN025 31/27 A2998 RMK AO2 T03110272
KGLS 211452Z 15013KT 10SM SCT019 31/27 A2997 RMK AO2 RAE1359 SLP150 P0000 60000 T03110267 51004
KGLS 211352Z 15008KT 10SM -RA FEW020 BKN037 BKN055 29/27 A2997 RMK AO2 RAB18 SLP149 P0000 T02940267
KGLS 211252Z 15009KT 10SM SCT019 SCT026 29/26 A2997 RMK AO2 SLP148 T02890261
KGLS 211152Z 16010KT 10SM BKN019 BKN025 29/27 A2996 RMK AO2 RAE02B34E50 SLP146 P0000 60000 T02890267 10294 20289 53012
KGLS 211136Z 16011KT 10SM -RA SCT017 BKN025 BKN029 29/27 A2996 RMK AO2 LTG DSNT E RAE02B34 P0000 T02890267
KGLS 211052Z 16009KT 10SM -RA SCT022 SCT055 BKN080 29/27 A2995 RMK AO2 RAB13 SLP142 P0000 T02890267
KGLS 210952Z AUTO 17010KT 10SM SCT020 29/26 A2994 RMK AO2 SLP137 T02940261
KGLS 210852Z AUTO 16013KT 10SM FEW019 FEW120 29/26 A2993 RMK AO2 SLP134 T02940256 58012
KGLS 210752Z AUTO 16014KT 10SM FEW020 29/26 A2995 RMK AO2 SLP140 T02940261
KGLS 210652Z AUTO 16015KT 10SM FEW019 29/26 A2996 RMK AO2 SLP145 T02940261
KGLS 210552Z AUTO 16012KT 10SM FEW020 29/26 A2996 RMK AO2 RAB09E23 SLP147 P0000 60000 T02940261 10294 20289 403220278 58003
KGLS 210452Z AUTO 15014KT 10SM FEW021 29/26 A2997 RMK AO2 SLP149 T02940261
KGLS 210352Z AUTO 15011KT 10SM FEW020 29/26 A2997 RMK AO2 SLP150 T02940261
KGLS 210252Z AUTO 16010KT 10SM CLR 29/26 A2997 RMK AO2 SLP149 T02940256 53012
KGLS 210152Z AUTO 16013KT 10SM FEW020 29/26 A2995 RMK AO2 SLP143 T02940261
KGLS 210052Z AUTO 14013KT 10SM FEW022 29/25 A2994 RMK AO2 SLP138 T02940250
KGLS 202352Z AUTO 14011KT 10SM CLR 29/25 A2994 RMK AO2 SLP138 T02940250 10322 20294 53001
KGLS 202252Z 15013KT 10SM SCT023 31/25 A2993 RMK AO2 SLP135 T03060250
KGLS 202152Z 14010KT 10SM SCT022 SCT029 31/26 A2993 RMK AO2 SLP135 T03110261
KGLS 202052Z 14011KT 10SM SCT021 32/26 A2994 RMK AO2 SLP137 T03170261 56018
KGLS 201952Z 14011KT 10SM SCT024 31/26 A2995 RMK AO2 SLP142 T03060261
KGLS 201852Z 14008KT 10SM BKN024 32/26 A2997 RMK AO2 SLP149 T03220261
KGLS 201816Z 14010KT 10SM SCT022 SCT029 31/26 A2999 RMK AO2 T03110256
KGLS 201752Z 15011KT 10SM BKN020 32/26 A2999 RMK AO2 SLP154 T03170261 10322 20278 58002 $
KGLS 201652Z 13009KT 10SM SCT021 SCT075 32/26 A3001 RMK AO2 SLP161 T03170261 $
KGLS 201552Z 13008KT 10SM SCT021 31/26 A3001 RMK AO2 SLP161 T03110261 $
KGLS 201452Z 14009KT 10SM FEW019 SCT024 BKN060 29/26 A3000 RMK AO2 SLP157 T02940256 53017
KGLS 201352Z 12008KT 10SM SCT019 30/26 A2998 RMK AO2 SLP151 T03000256
KGLS 201252Z 15007KT 10SM SCT022 29/26 A2996 RMK AO2 SLP144 T02890256 $
KGLS 201152Z 16005KT 10SM FEW019 SCT028 28/26 A2994 RMK AO2 SLP140 T02830256 10283 20278 55000
KGLS 201052Z 10SM CLR 28/26 A2993 RMK AO2 SLP136 T02830256 $
KGLS 200952Z AUTO SCT021 28/26 A2994 RMK AO2 SLP138 T02830256 PWINO $
KGLS 200852Z AUTO SCT022 28/26 A2995 RMK AO2 SLP140 T02830256 57004 PWINO $
KGLS 200752Z AUTO SCT019 28/26 A2995 RMK AO2 SLP141 T02830256 PWINO $
KGLS 200652Z AUTO FEW019 28/26 A2996 RMK AO2 SLP143 T02830256 PWINO $
KGLS 200552Z AUTO CLR 28/25 A2996 RMK AO2 SLP144 T02830250 10294 20283 403170272 52005 PWINO $